Time;durP1;ratioP1;P1;durP2;ratioP2;P2;SDS_P1;SDS_P2;PMS_P1;PMS_P2;Temp;Humidity;BMP_temperature;BMP_pressure;BME280_temperature;BME280_humidity;BME280_pressure;Samples;Min_cycle;Max_cycle;Signal;HPM_P1;HPM_P2
2022/06/20 00:01:43;;;;;;;4.13;3.73;;;23.20;93.40;;;;;;6281277;22;20939;-94
2022/06/20 00:04:18;;;;;;;5.17;3.50;;;23.20;93.50;;;;;;6254258;22;20441;-93
2022/06/20 00:06:44;;;;;;;3.57;3.10;;;23.10;93.60;;;;;;6253832;22;20823;-93
2022/06/20 00:09:12;;;;;;;5.23;3.20;;;23.10;93.80;;;;;;6254657;22;20397;-93
2022/06/20 00:11:41;;;;;;;5.87;4.17;;;23.00;94.00;;;;;;6253784;22;20886;-94
2022/06/20 00:14:12;;;;;;;4.40;3.80;;;23.00;94.10;;;;;;6254561;22;20393;-93
2022/06/20 00:16:38;;;;;;;2.93;2.73;;;23.00;94.20;;;;;;6281675;22;20385;-94
2022/06/20 00:19:04;;;;;;;6.43;3.70;;;22.90;94.30;;;;;;6281946;22;20390;-94
2022/06/20 00:21:30;;;;;;;3.33;2.90;;;22.90;94.60;;;;;;6254826;22;20175;-94
2022/06/20 00:23:55;;;;;;;3.37;3.07;;;22.80;94.80;;;;;;6253380;22;20200;-94
2022/06/20 00:26:22;;;;;;;4.40;3.53;;;22.80;95.10;;;;;;6279885;22;20529;-94
2022/06/20 00:28:48;;;;;;;4.10;3.67;;;22.80;95.20;;;;;;6252720;22;20210;-94
2022/06/20 00:31:15;;;;;;;5.80;3.07;;;22.70;95.40;;;;;;6253130;22;20380;-94
2022/06/20 00:33:43;;;;;;;4.00;3.10;;;22.70;95.50;;;;;;6253371;22;20777;-94
2022/06/20 00:36:09;;;;;;;3.30;3.00;;;22.60;95.50;;;;;;6252525;22;20399;-94
2022/06/20 00:38:35;;;;;;;3.60;3.27;;;22.60;95.70;;;;;;6280786;22;20862;-95
2022/06/20 00:41:07;;;;;;;3.73;3.10;;;22.50;95.80;;;;;;6252693;22;20369;-93
2022/06/20 00:43:38;;;;;;;4.87;3.70;;;22.50;96.00;;;;;;6255035;22;20913;-94
2022/06/20 00:46:12;;;;;;;3.60;3.30;;;22.40;96.10;;;;;;6257771;22;20410;-93
2022/06/20 00:48:46;;;;;;;3.80;2.73;;;22.30;95.80;;;;;;6296463;22;20376;-94
2022/06/20 00:51:30;;;;;;;8.00;3.70;;;22.30;96.20;;;;;;6287616;22;20377;-94
2022/06/20 00:54:16;;;;;;;4.87;3.23;;;22.30;96.40;;;;;;6279332;22;20765;-94
2022/06/20 00:57:01;;;;;;;4.10;3.20;;;22.20;96.50;;;;;;6278776;22;20443;-94
2022/06/20 00:59:31;;;;;;;3.60;3.00;;;22.20;96.60;;;;;;6252464;22;20420;-94
2022/06/20 01:01:59;;;;;;;4.50;3.30;;;22.10;96.70;;;;;;6252752;22;20405;-94
2022/06/20 01:04:41;;;;;;;4.50;3.03;;;22.10;96.80;;;;;;6279670;22;20448;-93
2022/06/20 01:07:12;;;;;;;6.03;3.50;;;22.10;96.80;;;;;;6252490;22;20410;-93
2022/06/20 01:09:43;;;;;;;3.43;3.13;;;22.00;96.90;;;;;;6280028;22;20381;-94
2022/06/20 01:12:14;;;;;;;4.03;3.10;;;22.00;97.00;;;;;;6252751;22;20444;-94
2022/06/20 01:14:41;;;;;;;5.60;3.70;;;22.00;97.10;;;;;;6254416;22;20381;-93
2022/06/20 01:17:35;;;;;;;3.60;3.10;;;21.90;97.30;;;;;;6279717;22;20389;-93
2022/06/20 01:20:19;;;;;;;2.77;2.57;;;21.90;97.40;;;;;;6252429;22;20390;-94
2022/06/20 01:22:48;;;;;;;3.53;3.20;;;21.80;97.50;;;;;;6253621;22;20437;-93
2022/06/20 01:25:22;;;;;;;4.30;3.00;;;21.80;97.60;;;;;;6280119;22;20783;-93
2022/06/20 01:27:50;;;;;;;3.90;3.50;;;21.80;97.70;;;;;;6253784;22;20500;-94
2022/06/20 01:30:18;;;;;;;3.70;3.40;;;21.80;97.70;;;;;;6279513;22;20453;-94
2022/06/20 01:32:44;;;;;;;3.37;3.07;;;21.70;97.90;;;;;;6280371;22;20406;-94
2022/06/20 01:37:23;;;;;;;4.43;3.73;;;21.70;98.10;;;;;;6263275;22;20378;-93
2022/06/20 01:38:01;;;;;;;4.63;3.20;;;21.60;98.20;;;;;;6284775;22;20447;-94
2022/06/20 01:40:29;;;;;;;3.53;3.20;;;21.60;98.40;;;;;;6261228;22;20416;-94
2022/06/20 01:42:55;;;;;;;3.60;3.10;;;21.50;98.50;;;;;;6265900;22;20484;-94
2022/06/20 01:48:12;;;;;;;3.90;3.50;;;21.40;98.60;;;;;;6280318;22;20458;-94
2022/06/20 01:50:39;;;;;;;3.70;3.40;;;21.30;98.70;;;;;;6253824;22;20381;-94
2022/06/20 01:53:08;;;;;;;3.40;3.10;;;21.30;99.00;;;;;;6253507;22;20421;-94
2022/06/20 01:55:35;;;;;;;5.07;3.43;;;21.20;99.30;;;;;;6253348;22;20376;-94
2022/06/20 01:58:14;;;;;;;3.40;3.10;;;21.20;99.40;;;;;;6279975;22;20913;-94
2022/06/20 02:00:40;;;;;;;5.00;2.90;;;21.20;99.50;;;;;;6280623;22;20361;-93
2022/06/20 02:03:09;;;;;;;3.43;2.70;;;21.20;99.50;;;;;;6280318;22;20448;-94
2022/06/20 02:05:35;;;;;;;4.30;3.90;;;21.20;99.70;;;;;;6280809;22;20362;-93
2022/06/20 02:08:04;;;;;;;3.90;3.50;;;21.10;99.70;;;;;;6254515;22;20439;-94
2022/06/20 02:10:47;;;;;;;4.93;4.37;;;21.10;99.40;;;;;;6254721;22;20370;-93
2022/06/20 02:13:13;;;;;;;5.67;4.43;;;21.00;98.90;;;;;;6281203;22;20401;-93
2022/06/20 02:15:40;;;;;;;4.73;4.33;;;20.80;99.00;;;;;;6254867;22;20377;-93
2022/06/20 02:18:08;;;;;;;6.57;4.73;;;20.70;99.00;;;;;;6282176;22;20436;-94
2022/06/20 02:20:48;;;;;;;5.97;5.37;;;20.50;99.10;;;;;;6283090;22;20358;-94
2022/06/20 02:23:27;;;;;;;9.80;4.93;;;20.40;99.30;;;;;;6259812;22;20456;-93
2022/06/20 02:25:55;;;;;;;6.00;4.53;;;20.30;99.60;;;;;;6284903;22;20357;-93
2022/06/20 02:28:28;;;;;;;5.90;4.67;;;20.20;99.70;;;;;;6280121;22;20743;-94
2022/06/20 02:30:54;;;;;;;6.33;4.77;;;20.10;99.90;;;;;;6254426;22;20422;-94
2022/06/20 02:33:25;;;;;;;6.63;5.30;;;20.00;99.90;;;;;;6254358;22;20420;-94
2022/06/20 02:35:53;;;;;;;7.47;5.90;;;19.90;99.90;;;;;;6254347;22;20159;-93
2022/06/20 02:38:20;;;;;;;6.33;5.57;;;19.80;99.90;;;;;;6254529;22;20423;-94
2022/06/20 02:40:47;;;;;;;10.67;6.30;;;19.70;99.90;;;;;;6254494;22;20457;-94
2022/06/20 02:43:28;;;;;;;6.90;5.70;;;19.60;99.90;;;;;;6289558;22;20579;-93
2022/06/20 02:45:55;;;;;;;7.07;5.60;;;19.60;99.90;;;;;;6298777;22;20353;-93
2022/06/20 02:48:25;;;;;;;6.77;5.30;;;19.50;99.90;;;;;;6295830;22;20407;-93
2022/06/20 02:50:55;;;;;;;7.20;5.57;;;19.50;99.90;;;;;;6268344;22;20383;-94
2022/06/20 02:53:43;;;;;;;7.70;5.77;;;19.50;99.90;;;;;;6264742;22;20410;-93
2022/06/20 02:56:14;;;;;;;7.80;5.30;;;19.50;99.90;;;;;;6274065;22;20383;-94
2022/06/20 02:58:45;;;;;;;7.00;5.83;;;19.50;99.90;;;;;;6252481;22;20438;-93
2022/06/20 03:01:18;;;;;;;6.30;5.23;;;19.50;99.90;;;;;;6252491;22;20383;-94
2022/06/20 03:03:49;;;;;;;9.80;5.17;;;19.60;99.90;;;;;;6280053;22;20485;-94
2022/06/20 03:06:30;;;;;;;7.43;5.57;;;19.60;99.90;;;;;;6252730;22;20380;-94
2022/06/20 03:08:57;;;;;;;6.23;5.00;;;19.70;99.90;;;;;;6279582;22;20384;-94
2022/06/20 03:11:25;;;;;;;6.40;5.00;;;19.80;99.90;;;;;;6252610;22;20391;-94
2022/06/20 03:13:51;;;;;;;6.87;5.00;;;19.90;99.90;;;;;;6252633;22;20395;-94
2022/06/20 03:16:17;;;;;;;6.30;5.70;;;20.00;99.90;;;;;;6253099;22;20396;-94
2022/06/20 03:18:49;;;;;;;8.23;5.63;;;20.10;99.90;;;;;;6253279;22;20696;-93
2022/06/20 03:21:18;;;;;;;7.60;6.10;;;20.20;99.90;;;;;;6255589;22;20430;-93
2022/06/20 03:23:44;;;;;;;7.50;5.77;;;20.30;99.90;;;;;;6253001;22;20550;-94
2022/06/20 03:26:17;;;;;;;5.90;5.30;;;20.30;99.90;;;;;;6279506;22;20373;-94
2022/06/20 03:28:43;;;;;;;9.23;6.30;;;20.40;99.90;;;;;;6253357;22;20246;-93
2022/06/20 03:31:10;;;;;;;8.27;6.50;;;20.40;99.90;;;;;;6252418;22;20783;-94
2022/06/20 03:33:36;;;;;;;6.37;5.40;;;20.50;99.90;;;;;;6252907;22;20399;-94
2022/06/20 03:36:13;;;;;;;6.70;5.03;;;20.60;99.90;;;;;;6279418;22;20448;-93
2022/06/20 03:38:41;;;;;;;7.70;5.40;;;20.60;99.90;;;;;;6278230;22;20396;-94
2022/06/20 03:41:10;;;;;;;7.73;5.87;;;20.70;99.90;;;;;;6252293;22;20507;-93
2022/06/20 03:43:39;;;;;;;7.07;6.03;;;20.80;99.90;;;;;;6278429;22;20929;-94
2022/06/20 03:46:17;;;;;;;5.93;5.30;;;20.80;99.90;;;;;;6280090;22;20368;-94
2022/06/20 03:48:53;;;;;;;8.80;5.43;;;20.90;99.90;;;;;;6254125;22;20768;-94
2022/06/20 03:51:27;;;;;;;8.07;6.10;;;20.90;99.90;;;;;;6253783;22;20393;-94
2022/06/20 03:54:08;;;;;;;126.27;57.63;;;20.90;99.90;;;;;;6279346;22;20465;-95
2022/06/20 03:56:47;;;;;;;22.70;16.17;;;21.00;99.90;;;;;;6280524;22;20393;-93
2022/06/20 03:59:25;;;;;;;11.70;7.53;;;21.00;99.90;;;;;;6250001;23;20397;-94
2022/06/20 04:02:00;;;;;;;9.70;7.20;;;21.10;99.90;;;;;;6221562;23;20394;-93
2022/06/20 04:04:36;;;;;;;6.67;6.07;;;21.10;99.90;;;;;;6250606;23;20467;-94
2022/06/20 04:07:07;;;;;;;8.10;6.07;;;21.10;99.90;;;;;;6223854;23;20457;-94
2022/06/20 04:12:29;;;;;;;10.50;6.07;;;21.10;99.90;;;;;;6256264;23;20932;-93
2022/06/20 04:15:00;;;;;;;6.47;5.53;;;21.10;99.90;;;;;;6260520;22;20393;-93
2022/06/20 04:20:44;;;;;;;7.90;5.30;;;21.10;99.90;;;;;;6265789;23;20361;-94
2022/06/20 04:23:27;;;;;;;7.43;6.27;;;21.10;99.90;;;;;;6247875;23;20481;-94
2022/06/20 04:26:34;;;;;;;10.50;5.60;;;21.10;99.90;;;;;;6221799;23;20384;-94
2022/06/20 04:29:03;;;;;;;11.50;6.00;;;21.10;99.90;;;;;;6247501;22;20402;-94
2022/06/20 04:31:39;;;;;;;8.70;5.80;;;21.10;99.90;;;;;;6247954;23;20398;-94
2022/06/20 04:34:25;;;;;;;8.97;5.70;;;21.00;99.90;;;;;;6248948;23;20404;-93
2022/06/20 04:37:28;;;;;;;8.30;5.90;;;21.00;99.90;;;;;;6248430;23;20401;-94
2022/06/20 04:40:23;;;;;;;10.30;6.57;;;21.00;99.90;;;;;;6201425;23;20839;-94
2022/06/20 04:43:10;;;;;;;9.80;6.67;;;21.00;99.90;;;;;;6220417;23;20503;-93
2022/06/20 04:45:49;;;;;;;6.53;5.83;;;21.00;99.90;;;;;;6221321;23;20409;-93
2022/06/20 04:48:22;;;;;;;6.30;5.70;;;21.10;99.90;;;;;;6221148;23;20423;-93
2022/06/20 04:50:56;;;;;;;9.30;6.23;;;21.10;99.90;;;;;;6250065;23;20664;-93
2022/06/20 04:53:29;;;;;;;5.70;5.00;;;21.20;99.90;;;;;;6249608;23;20426;-94
2022/06/20 04:55:57;;;;;;;6.50;5.60;;;21.20;99.90;;;;;;6253972;23;20373;-95
2022/06/20 04:58:28;;;;;;;7.03;5.67;;;21.30;99.90;;;;;;6272743;22;20457;-93
2022/06/20 05:00:55;;;;;;;5.63;5.13;;;21.30;99.90;;;;;;6253910;22;20373;-94
2022/06/20 05:03:25;;;;;;;7.10;6.20;;;21.40;99.90;;;;;;6253071;22;20833;-94
2022/06/20 05:05:55;;;;;;;6.47;5.73;;;21.40;99.90;;;;;;6278593;22;20389;-94
2022/06/20 05:08:34;;;;;;;7.60;6.13;;;21.50;99.90;;;;;;6280261;22;20405;-93
2022/06/20 05:11:21;;;;;;;5.83;5.13;;;21.50;99.90;;;;;;6271077;22;20470;-93
2022/06/20 05:14:05;;;;;;;6.07;5.40;;;21.70;99.90;;;;;;6267463;22;20394;-94
2022/06/20 05:16:35;;;;;;;6.00;4.90;;;21.70;99.90;;;;;;6278292;22;20415;-92
2022/06/20 05:19:25;;;;;;;5.90;5.30;;;21.80;99.90;;;;;;6253278;22;20389;-94
2022/06/20 05:21:55;;;;;;;6.10;5.20;;;21.90;99.90;;;;;;6280291;22;20393;-94
2022/06/20 05:24:24;;;;;;;6.40;5.33;;;22.10;99.90;;;;;;6252087;22;20443;-94
2022/06/20 05:26:52;;;;;;;5.73;4.90;;;22.20;99.90;;;;;;6250728;22;20400;-94
2022/06/20 05:29:31;;;;;;;6.43;5.33;;;22.30;99.90;;;;;;6278267;22;20377;-94
2022/06/20 05:32:02;;;;;;;4.87;4.43;;;22.40;99.90;;;;;;6251517;22;20723;-95
2022/06/20 05:34:44;;;;;;;5.90;4.70;;;22.50;99.90;;;;;;6278302;22;20377;-93
2022/06/20 05:37:22;;;;;;;6.87;5.17;;;22.60;99.90;;;;;;6249732;22;20936;-93
2022/06/20 05:40:12;;;;;;;5.37;4.87;;;22.70;99.90;;;;;;6255608;22;20416;-92
2022/06/20 05:42:38;;;;;;;5.53;4.97;;;22.80;99.90;;;;;;6281200;22;20936;-93
2022/06/20 05:45:14;;;;;;;6.53;5.20;;;23.00;99.90;;;;;;6260181;22;20382;-94
2022/06/20 05:47:40;;;;;;;9.03;7.77;;;23.10;99.90;;;;;;6255294;22;20268;-94
2022/06/20 05:50:15;;;;;;;6.07;5.25;;;23.10;99.90;;;;;;6279592;22;20367;-92
2022/06/20 05:52:43;;;;;;;11.77;7.67;;;23.20;99.90;;;;;;6281653;22;20168;-93
2022/06/20 05:55:24;;;;;;;44.60;24.17;;;23.30;99.90;;;;;;6281040;22;20366;-94
2022/06/20 05:57:50;;;;;;;6.40;5.53;;;23.40;99.90;;;;;;6281075;22;20555;-94
2022/06/20 06:00:23;;;;;;;5.50;5.00;;;23.50;99.90;;;;;;6287105;22;20374;-93
2022/06/20 06:03:11;;;;;;;6.23;5.20;;;23.60;99.90;;;;;;6251571;22;20734;-93
2022/06/20 06:05:40;;;;;;;5.17;4.67;;;23.80;99.90;;;;;;6251908;22;20397;-95
2022/06/20 06:08:11;;;;;;;5.90;4.03;;;23.90;99.90;;;;;;6250103;22;20433;-96
2022/06/20 06:10:41;;;;;;;6.27;4.60;;;24.00;99.90;;;;;;6250261;22;20398;-93
2022/06/20 06:13:30;;;;;;;4.87;4.40;;;24.20;99.90;;;;;;6275618;22;20494;-95
2022/06/20 06:19:35;;;;;;;5.07;4.57;;;24.50;99.90;;;;;;6277881;22;20403;-94
2022/06/20 06:22:12;;;;;;;4.60;4.20;;;24.60;99.90;;;;;;6238122;22;20420;-96
2022/06/20 06:24:42;;;;;;;5.87;4.33;;;24.80;99.90;;;;;;6281978;22;20527;-96
2022/06/20 06:27:15;;;;;;;4.67;4.27;;;24.90;99.90;;;;;;6278162;22;20440;-95
2022/06/20 06:29:47;;;;;;;4.87;4.47;;;25.10;99.90;;;;;;6247345;22;20484;-96
2022/06/20 06:32:41;;;;;;;6.43;4.87;;;25.20;99.90;;;;;;6268424;22;20439;-93
2022/06/20 06:35:24;;;;;;;5.00;4.30;;;25.30;99.90;;;;;;6247892;22;20401;-95
2022/06/20 06:38:00;;;;;;;4.00;3.60;;;25.40;99.90;;;;;;6275949;22;20858;-94
2022/06/20 06:40:32;;;;;;;3.87;3.50;;;25.60;99.90;;;;;;6275902;22;20955;-94
2022/06/20 06:42:59;;;;;;;5.40;4.90;;;25.70;99.50;;;;;;6275241;22;20430;-94
2022/06/20 06:45:30;;;;;;;7.40;4.40;;;25.70;99.50;;;;;;6251579;22;20382;-93
2022/06/20 06:48:07;;;;;;;5.47;4.70;;;25.90;99.00;;;;;;6258081;22;20421;-96
2022/06/20 06:50:55;;;;;;;5.30;4.07;;;26.00;98.60;;;;;;6278585;22;20365;-96
2022/06/20 06:54:03;;;;;;;3.90;3.40;;;26.20;98.50;;;;;;6279833;22;20779;-95
2022/06/20 06:56:36;;;;;;;5.30;4.27;;;26.30;98.60;;;;;;6102974;23;20410;-96
2022/06/20 06:59:29;;;;;;;3.70;3.20;;;26.40;96.90;;;;;;6127652;23;20465;-94
2022/06/20 07:01:59;;;;;;;4.10;3.20;;;26.60;96.30;;;;;;6231505;22;20410;-96
2022/06/20 07:04:43;;;;;;;3.60;3.30;;;26.60;96.00;;;;;;6289704;22;20457;-95
2022/06/20 07:07:38;;;;;;;4.00;3.60;;;26.80;95.30;;;;;;6276025;22;20862;-93
2022/06/20 07:10:07;;;;;;;3.60;3.30;;;26.90;95.00;;;;;;6229833;22;20447;-94
2022/06/20 07:12:51;;;;;;;3.67;3.30;;;27.00;95.30;;;;;;6277330;22;20409;-94
2022/06/20 07:15:22;;;;;;;3.57;3.27;;;27.10;95.70;;;;;;6277419;22;20397;-94
2022/06/20 07:18:06;;;;;;;5.70;3.73;;;27.20;95.40;;;;;;6249202;22;20467;-93
2022/06/20 07:20:39;;;;;;;5.43;3.10;;;27.30;94.60;;;;;;6254869;22;20389;-93
2022/06/20 07:23:09;;;;;;;3.67;3.37;;;27.50;93.70;;;;;;6244551;22;20443;-94
2022/06/20 07:25:40;;;;;;;4.73;3.30;;;27.50;93.50;;;;;;6245774;22;20480;-95
2022/06/20 07:28:27;;;;;;;3.60;3.27;;;27.60;93.50;;;;;;6273710;22;20460;-94
2022/06/20 07:31:00;;;;;;;4.90;3.50;;;27.60;93.80;;;;;;6247971;22;20377;-94
2022/06/20 07:33:35;;;;;;;3.83;3.53;;;27.70;93.20;;;;;;6254877;22;20418;-95
2022/06/20 07:36:04;;;;;;;4.37;3.87;;;27.80;93.10;;;;;;6246719;22;20386;-94
2022/06/20 07:38:43;;;;;;;4.00;3.60;;;27.90;93.10;;;;;;6249154;22;20418;-95
2022/06/20 07:41:26;;;;;;;4.20;3.80;;;28.00;92.50;;;;;;6246679;22;20373;-94
2022/06/20 07:44:12;;;;;;;5.97;4.57;;;28.10;92.50;;;;;;6247130;22;20435;-96
2022/06/20 07:46:44;;;;;;;5.63;4.67;;;28.20;92.30;;;;;;6250981;22;20432;-94
2022/06/20 07:49:17;;;;;;;3.40;3.20;;;28.30;92.40;;;;;;6257806;22;20393;-95
2022/06/20 07:51:46;;;;;;;2.93;2.73;;;28.40;92.00;;;;;;6250132;22;20403;-94
2022/06/20 07:54:20;;;;;;;6.03;3.40;;;28.50;91.40;;;;;;6278395;22;20427;-96
2022/06/20 07:56:48;;;;;;;3.57;3.33;;;28.50;91.10;;;;;;6247626;22;20407;-95
2022/06/20 07:59:20;;;;;;;3.37;3.10;;;28.60;91.30;;;;;;6247751;22;20625;-94
2022/06/20 08:02:06;;;;;;;3.70;3.07;;;28.70;91.00;;;;;;6277008;22;20802;-94
2022/06/20 08:04:33;;;;;;;5.80;3.43;;;28.70;91.00;;;;;;6259771;22;20451;-94
2022/06/20 08:07:13;;;;;;;3.03;2.73;;;28.80;90.20;;;;;;6277869;22;20391;-96
2022/06/20 08:10:02;;;;;;;3.23;3.03;;;28.90;90.90;;;;;;6247582;22;20382;-95
2022/06/20 08:12:39;;;;;;;3.30;3.00;;;28.90;90.00;;;;;;6248127;22;20788;-94
2022/06/20 08:15:17;;;;;;;4.03;3.00;;;29.00;90.00;;;;;;6247034;22;20395;-94
2022/06/20 08:17:43;;;;;;;2.83;2.50;;;29.10;88.00;;;;;;6275017;22;20415;-95
2022/06/20 08:20:11;;;;;;;3.40;3.10;;;29.20;87.80;;;;;;6272864;22;20363;-95
2022/06/20 08:22:52;;;;;;;2.93;2.70;;;29.20;87.20;;;;;;6246763;22;20540;-94
2022/06/20 08:25:22;;;;;;;3.00;2.80;;;29.20;86.60;;;;;;6252224;22;20719;-96
2022/06/20 08:27:51;;;;;;;2.87;2.50;;;29.30;86.30;;;;;;6277035;22;20403;-95
2022/06/20 08:30:33;;;;;;;3.40;3.10;;;29.30;86.20;;;;;;6250819;22;20380;-96
2022/06/20 08:33:01;;;;;;;4.23;2.90;;;29.40;85.10;;;;;;6252216;22;20436;-95
2022/06/20 08:35:33;;;;;;;3.97;2.93;;;29.50;84.60;;;;;;6251965;22;20385;-95
2022/06/20 08:38:16;;;;;;;4.77;2.77;;;29.60;84.60;;;;;;6251435;22;20429;-95
2022/06/20 08:41:02;;;;;;;3.07;2.87;;;29.60;84.50;;;;;;6282896;22;20349;-95
2022/06/20 08:43:37;;;;;;;2.80;2.60;;;29.70;84.50;;;;;;6275727;22;20499;-94
2022/06/20 08:46:38;;;;;;;3.10;2.90;;;29.70;84.70;;;;;;6249232;22;20393;-96
2022/06/20 08:49:24;;;;;;;3.43;3.13;;;29.80;82.40;;;;;;6195599;22;20408;-95
2022/06/20 08:52:08;;;;;;;2.90;2.70;;;29.90;84.00;;;;;;6249998;22;20500;-95
2022/06/20 08:55:12;;;;;;;2.63;2.43;;;29.90;82.30;;;;;;6249144;22;20400;-95
2022/06/20 08:58:02;;;;;;;2.73;2.53;;;29.90;82.30;;;;;;6185674;22;20446;-93
2022/06/20 09:01:00;;;;;;;3.27;2.97;;;30.00;81.80;;;;;;6275114;22;20451;-94
2022/06/20 09:03:54;;;;;;;4.13;3.00;;;30.00;82.50;;;;;;6250430;22;20451;-95
2022/06/20 09:06:37;;;;;;;2.93;2.63;;;30.10;81.80;;;;;;6247767;22;20393;-94
2022/06/20 09:09:44;;;;;;;13.03;10.50;;;30.20;79.60;;;;;;6247442;22;20409;-93
2022/06/20 09:12:29;;;;;;;3.30;2.60;;;30.30;79.00;;;;;;6274010;22;20462;-94
2022/06/20 09:15:20;;;;;;;4.40;3.37;;;30.30;77.50;;;;;;6250791;22;20396;-95
2022/06/20 09:17:51;;;;;;;4.03;3.17;;;30.30;76.20;;;;;;6257861;22;20438;-94
2022/06/20 09:20:40;;;;;;;3.40;3.10;;;30.40;76.10;;;;;;6275566;22;20671;-94
2022/06/20 09:23:20;;;;;;;4.40;2.53;;;30.50;76.50;;;;;;6251175;22;20442;-93
2022/06/20 09:26:03;;;;;;;2.80;2.60;;;30.60;74.80;;;;;;6249566;22;20396;-94
2022/06/20 09:29:08;;;;;;;2.73;2.53;;;30.60;74.70;;;;;;6277692;22;20398;-92
2022/06/20 09:31:40;;;;;;;2.77;2.57;;;30.70;73.90;;;;;;6252032;22;20409;-94
2022/06/20 09:34:39;;;;;;;3.00;2.77;;;30.70;74.10;;;;;;6251533;22;20450;-94
2022/06/20 09:37:23;;;;;;;2.33;2.13;;;30.90;74.30;;;;;;6285401;22;20390;-94
2022/06/20 09:40:20;;;;;;;2.60;1.93;;;30.90;74.30;;;;;;6280771;22;20392;-94
2022/06/20 09:42:55;;;;;;;2.90;2.70;;;31.00;72.80;;;;;;6289901;22;20373;-94
2022/06/20 09:45:41;;;;;;;2.63;2.43;;;31.00;73.70;;;;;;6276860;22;20388;-91
2022/06/20 09:48:13;;;;;;;2.77;2.57;;;31.10;73.00;;;;;;6278352;22;20476;-91
2022/06/20 09:50:59;;;;;;;3.73;2.90;;;31.10;72.90;;;;;;6247044;22;20446;-92
2022/06/20 09:53:50;;;;;;;2.77;2.57;;;31.20;72.60;;;;;;6246916;22;20817;-93
2022/06/20 09:56:22;;;;;;;2.40;2.10;;;31.30;72.20;;;;;;6248369;22;20411;-92
2022/06/20 09:59:15;;;;;;;2.10;2.00;;;31.40;72.90;;;;;;6242464;23;20442;-92
2022/06/20 10:01:55;;;;;;;2.87;2.20;;;31.40;72.90;;;;;;6244535;23;20473;-93
2022/06/20 10:04:28;;;;;;;3.10;2.90;;;31.40;72.00;;;;;;6258961;22;20429;-92
2022/06/20 10:07:12;;;;;;;2.70;2.50;;;31.50;70.80;;;;;;6245451;23;20402;-93
2022/06/20 10:10:04;;;;;;;2.70;2.50;;;31.50;71.10;;;;;;6241845;23;20382;-93
2022/06/20 10:12:41;;;;;;;2.90;2.67;;;31.60;71.40;;;;;;6243238;23;20422;-92
2022/06/20 10:15:13;;;;;;;3.80;2.90;;;31.60;71.60;;;;;;6241937;23;20406;-93
2022/06/20 10:17:41;;;;;;;3.00;2.80;;;31.60;71.00;;;;;;6242319;23;20426;-93
2022/06/20 10:20:33;;;;;;;2.60;2.40;;;31.70;71.20;;;;;;6242117;23;20434;-93
2022/06/20 10:23:16;;;;;;;2.60;2.40;;;31.70;73.00;;;;;;6243720;23;21009;-93
2022/06/20 10:26:05;;;;;;;4.83;3.07;;;31.80;70.20;;;;;;6243325;23;20390;-92
2022/06/20 10:28:53;;;;;;;2.60;2.40;;;31.80;70.60;;;;;;6246045;23;20441;-92
2022/06/20 10:31:48;;;;;;;3.23;2.93;;;31.80;69.80;;;;;;6245882;23;20394;-93
2022/06/20 10:34:39;;;;;;;3.23;3.03;;;31.70;71.50;;;;;;6233285;22;20434;-92
2022/06/20 10:37:30;;;;;;;2.87;2.67;;;31.80;70.10;;;;;;6246750;23;20414;-92
2022/06/20 10:39:56;;;;;;;2.90;2.67;;;31.80;71.10;;;;;;6246845;23;20402;-93
2022/06/20 10:42:47;;;;;;;4.10;2.90;;;31.80;71.30;;;;;;6259700;23;20404;-92
2022/06/20 10:45:34;;;;;;;2.83;2.60;;;31.90;70.10;;;;;;6246156;23;20165;-93
2022/06/20 10:48:12;;;;;;;4.40;2.83;;;31.90;71.30;;;;;;6245825;22;20402;-92
2022/06/20 10:51:10;;;;;;;3.27;2.60;;;31.90;70.70;;;;;;6248141;23;20402;-93
2022/06/20 10:53:38;;;;;;;7.03;2.90;;;31.90;69.80;;;;;;6256667;22;20487;-93
2022/06/20 10:56:22;;;;;;;2.53;2.40;;;31.90;71.00;;;;;;6243263;23;20395;-93
2022/06/20 10:59:10;;;;;;;2.63;2.43;;;31.90;70.10;;;;;;6250332;22;20539;-91
2022/06/20 11:01:38;;;;;;;2.37;2.20;;;31.90;70.40;;;;;;6277267;22;20443;-92
2022/06/20 11:04:45;;;;;;;4.07;3.30;;;31.90;70.90;;;;;;6249866;22;20932;-93
2022/06/20 11:07:26;;;;;;;3.33;2.60;;;32.00;70.50;;;;;;6242324;22;20409;-93
2022/06/20 11:10:03;;;;;;;2.80;2.60;;;32.00;70.60;;;;;;6281765;22;20859;-92
2022/06/20 11:12:38;;;;;;;2.60;2.40;;;32.10;69.60;;;;;;6251587;22;20883;-91
2022/06/20 11:15:15;;;;;;;2.33;2.13;;;32.10;69.50;;;;;;6277753;22;20373;-92
2022/06/20 11:18:17;;;;;;;3.00;2.80;;;32.10;70.30;;;;;;6251241;22;20487;-93
2022/06/20 11:20:42;;;;;;;3.23;2.83;;;32.20;68.80;;;;;;6187398;22;20381;-92
2022/06/20 11:23:26;;;;;;;6.20;2.40;;;32.30;68.00;;;;;;6249112;22;20441;-92
2022/06/20 11:26:13;;;;;;;3.50;3.00;;;32.20;68.80;;;;;;6249409;22;20163;-90
2022/06/20 11:28:45;;;;;;;3.60;2.80;;;32.20;68.20;;;;;;6257395;22;20408;-94
2022/06/20 11:31:43;;;;;;;2.73;2.53;;;32.30;68.00;;;;;;6276160;22;20839;-93
2022/06/20 11:34:35;;;;;;;2.67;2.47;;;32.20;68.00;;;;;;6247187;22;20906;-93
2022/06/20 11:37:15;;;;;;;3.33;2.87;;;32.20;68.00;;;;;;6249286;22;20535;-94
2022/06/20 11:39:44;;;;;;;2.80;2.60;;;32.20;67.60;;;;;;6248592;22;20870;-91
2022/06/20 11:42:20;;;;;;;3.00;2.63;;;32.10;68.00;;;;;;6276474;22;20390;-94
2022/06/20 11:44:58;;;;;;;2.43;2.23;;;32.10;67.70;;;;;;6251909;22;20433;-92
2022/06/20 11:47:45;;;;;;;2.97;2.33;;;32.10;67.70;;;;;;6253995;22;20416;-89
2022/06/20 11:50:38;;;;;;;2.50;2.30;;;32.10;68.10;;;;;;6278201;22;20424;-91
2022/06/20 11:53:30;;;;;;;2.83;2.60;;;32.10;68.40;;;;;;6251783;22;20719;-93
2022/06/20 11:56:26;;;;;;;2.97;2.77;;;32.10;67.70;;;;;;6271338;22;20839;-90
2022/06/20 11:59:25;;;;;;;2.97;2.70;;;32.20;68.60;;;;;;6216935;22;20495;-90
2022/06/20 12:02:05;;;;;;;2.70;2.50;;;32.20;68.00;;;;;;6246244;22;20413;-92
2022/06/20 12:04:52;;;;;;;2.50;2.30;;;32.30;68.50;;;;;;6257636;22;20441;-93
2022/06/20 12:07:31;;;;;;;2.40;2.20;;;32.30;67.00;;;;;;6246735;22;20401;-90
2022/06/20 12:10:19;;;;;;;4.33;2.87;;;32.30;67.10;;;;;;6273043;22;20362;-90
2022/06/20 12:13:17;;;;;;;2.77;2.53;;;32.30;67.80;;;;;;6252723;22;20450;-67
2022/06/20 12:16:00;;;;;;;2.50;2.30;;;32.30;67.90;;;;;;6205084;23;20391;-68
2022/06/20 12:23:18;;;;;;;2.83;2.63;;;32.40;67.30;;;;;;6210622;23;20770;-68
2022/06/20 12:24:20;;;;;;;2.67;2.47;;;32.40;67.20;;;;;;6208486;23;20434;-67
2022/06/20 12:26:47;;;;;;;2.53;2.30;;;32.40;67.10;;;;;;6205553;23;20758;-67
2022/06/20 12:29:24;;;;;;;2.33;2.23;;;32.40;67.80;;;;;;6209858;23;20419;-69
2022/06/20 12:31:57;;;;;;;2.60;2.40;;;32.50;67.90;;;;;;6208111;23;20513;-67
2022/06/20 12:34:58;;;;;;;2.67;2.50;;;32.50;67.80;;;;;;6232531;23;21184;-66
2022/06/20 12:37:40;;;;;;;1.93;1.83;;;32.50;68.30;;;;;;6206052;23;20439;-67
2022/06/20 12:40:47;;;;;;;3.20;2.30;;;32.50;67.90;;;;;;6209260;23;20947;-68
2022/06/20 12:44:15;;;;;;;2.03;1.93;;;32.50;67.40;;;;;;6270895;22;20476;-67
2022/06/20 12:47:30;;;;;;;3.33;2.30;;;32.50;67.60;;;;;;6245329;22;20461;-91
2022/06/20 12:50:18;;;;;;;2.97;2.73;;;32.50;67.50;;;;;;6250103;22;20382;-90
2022/06/20 12:53:08;;;;;;;2.50;2.30;;;32.50;67.80;;;;;;6274488;22;20413;-90
2022/06/20 12:56:09;;;;;;;3.10;2.10;;;32.50;67.70;;;;;;6248794;22;20484;-92
2022/06/20 12:58:44;;;;;;;3.43;2.53;;;32.50;68.10;;;;;;6252904;22;20385;-93
2022/06/20 13:01:17;;;;;;;3.30;3.00;;;32.50;66.90;;;;;;6253204;22;20748;-91
2022/06/20 13:04:13;;;;;;;2.37;2.27;;;32.50;67.80;;;;;;6249345;22;20437;-91
2022/06/20 13:06:51;;;;;;;2.23;2.13;;;32.50;67.60;;;;;;6281777;22;20410;-93
2022/06/20 13:09:36;;;;;;;2.60;2.40;;;32.50;67.20;;;;;;6273764;22;20405;-91
2022/06/20 13:12:20;;;;;;;2.70;2.50;;;32.60;67.00;;;;;;6274419;22;20424;-93
2022/06/20 13:15:34;;;;;;;3.60;2.33;;;32.60;67.40;;;;;;6247622;22;20774;-93
2022/06/20 13:18:37;;;;;;;2.70;2.40;;;32.60;67.80;;;;;;6228632;22;20405;-90
2022/06/20 13:21:18;;;;;;;2.60;2.40;;;32.70;67.70;;;;;;6248336;22;20381;-91
2022/06/20 13:24:11;;;;;;;4.40;2.90;;;32.70;68.60;;;;;;6245443;22;20609;-91
2022/06/20 13:26:49;;;;;;;3.07;2.47;;;32.70;68.50;;;;;;6245909;22;20422;-90
2022/06/20 13:29:37;;;;;;;2.57;1.93;;;32.80;68.00;;;;;;6271221;22;20381;-91
2022/06/20 13:32:16;;;;;;;2.20;2.10;;;32.90;67.60;;;;;;6275710;22;20401;-90
2022/06/20 13:35:18;;;;;;;3.37;2.70;;;32.90;66.40;;;;;;6246817;22;20736;-93
2022/06/20 13:38:03;;;;;;;2.60;2.40;;;32.90;67.60;;;;;;6248327;22;20505;-92
2022/06/20 13:40:43;;;;;;;2.50;2.30;;;32.90;67.90;;;;;;6247801;22;20382;-92
2022/06/20 13:43:25;;;;;;;2.60;2.40;;;32.90;67.60;;;;;;6256701;22;20436;-93
2022/06/20 13:45:53;;;;;;;2.80;2.60;;;32.90;68.30;;;;;;6274652;22;20369;-93
2022/06/20 13:48:25;;;;;;;2.80;2.50;;;33.00;67.70;;;;;;6273055;22;20433;-93
2022/06/20 13:51:16;;;;;;;2.80;2.40;;;33.00;65.70;;;;;;6248573;22;20397;-94
2022/06/20 13:53:57;;;;;;;2.40;2.20;;;33.00;66.00;;;;;;6237408;22;20386;-90
2022/06/20 13:56:37;;;;;;;2.63;2.43;;;32.90;66.30;;;;;;6257881;22;20500;-91
2022/06/20 13:59:17;;;;;;;3.27;2.40;;;33.00;67.10;;;;;;6247982;22;20900;-91